TimeMDT,TemperatureF,Dew PointF,Humidity,Sea Level PressureIn,VisibilityMPH,Wind Direction,Wind SpeedMPH,Gust SpeedMPH,PrecipitationIn,Events,Conditions,WindDirDegrees,DateUTC
12:15 AM,71.6,39.2,31,30.04,10.0,Calm,Calm,-,N/A,,Clear,0,2013-07-23 06:15:00
12:36 AM,73.4,37.4,27,30.04,10.0,WNW,5.8,-,N/A,,Clear,300,2013-07-23 06:36:00
12:56 AM,73.4,33.8,23,30.04,10.0,WSW,9.2,-,N/A,,Clear,240,2013-07-23 06:56:00
1:15 AM,71.6,32.0,23,30.04,10.0,West,9.2,-,N/A,,Clear,280,2013-07-23 07:15:00
1:36 AM,69.8,26.6,20,30.04,10.0,West,9.2,-,N/A,,Clear,270,2013-07-23 07:36:00
1:56 AM,71.6,24.8,17,30.04,10.0,SE,4.6,-,N/A,,Clear,140,2013-07-23 07:56:00
2:16 AM,71.6,23.0,16,30.05,10.0,North,9.2,-,N/A,,Clear,350,2013-07-23 08:16:00
2:36 AM,75.2,17.6,11,30.05,10.0,WNW,11.5,-,N/A,,Clear,290,2013-07-23 08:36:00
2:56 AM,73.4,17.6,12,30.05,10.0,NW,6.9,-,N/A,,Clear,310,2013-07-23 08:56:00
3:16 AM,75.2,14.0,10,30.05,10.0,NW,13.8,18.4,N/A,,Clear,320,2013-07-23 09:16:00
3:36 AM,73.4,17.6,12,30.06,10.0,West,4.6,-,N/A,,Clear,280,2013-07-23 09:36:00
3:56 AM,71.6,15.8,12,30.05,10.0,WNW,4.6,-,N/A,,Clear,300,2013-07-23 09:56:00
4:15 AM,73.4,17.6,12,30.05,10.0,NW,8.1,-,N/A,,Clear,310,2013-07-23 10:15:00
4:36 AM,69.8,21.2,16,30.05,10.0,Calm,Calm,-,N/A,,Clear,0,2013-07-23 10:36:00
4:56 AM,71.6,19.4,14,30.07,10.0,Calm,Calm,-,N/A,,Clear,0,2013-07-23 10:56:00
5:16 AM,73.4,12.2,10,30.07,10.0,WNW,9.2,-,N/A,,Clear,300,2013-07-23 11:16:00
5:36 AM,77.0,8.6,7,30.08,10.0,WNW,6.9,-,N/A,,Clear,300,2013-07-23 11:36:00
5:48 AM,75.2,10.4,8,30.08,50.0,West,4.6,-,N/A,,Mostly Cloudy,280,2013-07-23 11:48:00
5:56 AM,73.4,10.4,9,30.08,10.0,WNW,5.8,-,N/A,,Clear,290,2013-07-23 11:56:00
6:48 AM,71.6,15.8,12,30.10,50.0,Variable,4.6,-,N/A,,Mostly Cloudy,0,2013-07-23 12:48:00
7:46 AM,73.4,26.6,18,30.11,50.0,Calm,Calm,-,N/A,,Mostly Cloudy,0,2013-07-23 13:46:00
8:45 AM,77.0,23.0,13,30.13,50.0,North,6.9,-,N/A,,Mostly Cloudy,360,2013-07-23 14:45:00
9:45 AM,80.6,30.2,16,30.15,50.0,Variable,6.9,-,N/A,,Mostly Cloudy,0,2013-07-23 15:45:00
10:47 AM,80.6,39.2,23,30.17,30.0,North,11.5,-,N/A,,Scattered Clouds,10,2013-07-23 16:47:00
12:46 PM,84.2,44.6,25,30.17,30.0,North,9.2,-,N/A,,Scattered Clouds,350,2013-07-23 18:46:00
1:47 PM,86.0,41.0,20,30.16,30.0,NNE,6.9,-,N/A,,Scattered Clouds,20,2013-07-23 19:47:00
2:47 PM,87.8,39.2,18,30.15,30.0,North,9.2,-,N/A,,Scattered Clouds,360,2013-07-23 20:47:00
3:50 PM,89.6,41.0,18,30.13,30.0,ENE,11.5,-,N/A,,Mostly Cloudy,60,2013-07-23 21:50:00
4:46 PM,89.6,39.2,17,30.13,30.0,ENE,4.6,-,N/A,,Mostly Cloudy,70,2013-07-23 22:46:00
5:50 PM,87.8,41.0,19,30.13,30.0,NE,9.2,-,N/A,,Mostly Cloudy,50,2013-07-23 23:50:00
6:50 PM,86.0,42.8,22,30.13,30.0,NE,9.2,-,N/A,,Mostly Cloudy,40,2013-07-24 00:50:00
7:55 PM,82.4,46.4,28,30.16,30.0,NE,10.4,-,N/A,,Mostly Cloudy,50,2013-07-24 01:55:00
8:53 PM,77.0,51.8,41,30.19,20.0,Variable,4.6,-,N/A,,Mostly Cloudy,0,2013-07-24 02:53:00
9:53 PM,77.0,53.6,44,30.22,20.0,NNW,6.9,-,N/A,,Mostly Cloudy,340,2013-07-24 03:53:00
11:16 PM,71.6,51.8,50,30.23,10.0,North,9.2,-,N/A,,Clear,10,2013-07-24 05:16:00
11:36 PM,71.6,51.8,50,30.24,10.0,North,9.2,-,N/A,,Clear,10,2013-07-24 05:36:00
11:56 PM,71.6,51.8,50,30.24,10.0,North,9.2,-,N/A,,Clear,350,2013-07-24 05:56:00